CheckWX is a tool to help pilots better visualize weather data.  It is not intended as a substitute for an official pre-flight weather briefing.

16:08:53 UTC

KPEZ METAR
Pleasanton Municipal Airport
Pleasanton, Texas, USA
Current

14 mins ago

KPEZ 241555Z AUTO 14009KT 7SM BKN029 OVC033 28/24 A2990 RMK AO2 LTG DSNT E T02800240
Observed
Jun-24 @ 15:55 UTC
Wind
  • 140° at 9 KTS
Visibility
7 SM
Flight Rules
MVFR
Cloud Levels
  • Broken at 2,900' AGL
  • Overcast at 3,300' AGL
Temperature
28°C / 82°F
Dewpoint
24°C / 75°F
Heat Index
32°C / 89°F
Humidity
79%
Altimeter
29.9" Hg
Pressure
1012.52 hPa
Previous

34 mins ago

KPEZ 241535Z AUTO 12007KT 7SM SCT017 BKN027 OVC032 28/24 A2990 RMK AO2 T02770241
Observed
Jun-24 @ 15:35 UTC
Wind
  • 120° at 7 KTS
Visibility
7 SM
Flight Rules
MVFR
Cloud Levels
  • Scattered at 1,700' AGL
  • Broken at 2,700' AGL
  • Overcast at 3,200' AGL
Temperature
28°C / 82°F
Dewpoint
24°C / 75°F
Heat Index
32°C / 89°F
Humidity
79%
Altimeter
29.9" Hg
Pressure
1012.52 hPa
Previous

54 mins ago

KPEZ 241515Z AUTO 10005KT 7SM SCT015 BKN020 OVC026 27/24 A2990 RMK AO2 T02730242
Observed
Jun-24 @ 15:15 UTC
Wind
  • 100° at 5 KTS
Visibility
7 SM
Flight Rules
MVFR
Cloud Levels
  • Scattered at 1,500' AGL
  • Broken at 2,000' AGL
  • Overcast at 2,600' AGL
Temperature
27°C / 81°F
Dewpoint
24°C / 75°F
Heat Index
31°C / 87°F
Humidity
84%
Altimeter
29.9" Hg
Pressure
1012.52 hPa